sensor_id;sensor_type;location;lat;lon;timestamp;pressure;altitude;pressure_sealevel;temperature;humidity
18821;BME280;9539;59.332;18.034;2022-10-16T00:01:09;100247.59;;;13.58;100.00
18821;BME280;9539;59.332;18.034;2022-10-16T00:03:37;100217.81;;;13.53;100.00
18821;BME280;9539;59.332;18.034;2022-10-16T00:06:05;100231.97;;;13.65;100.00
18821;BME280;9539;59.332;18.034;2022-10-16T00:08:33;100235.81;;;13.72;100.00
18821;BME280;9539;59.332;18.034;2022-10-16T00:11:03;100236.28;;;13.77;100.00
18821;BME280;9539;59.332;18.034;2022-10-16T00:13:31;100224.81;;;13.65;100.00
18821;BME280;9539;59.332;18.034;2022-10-16T00:15:59;100233.03;;;13.73;100.00
18821;BME280;9539;59.332;18.034;2022-10-16T00:18:27;100236.06;;;13.69;100.00
18821;BME280;9539;59.332;18.034;2022-10-16T00:20:55;100227.22;;;13.68;100.00
18821;BME280;9539;59.332;18.034;2022-10-16T00:23:22;100227.31;;;13.78;100.00
18821;BME280;9539;59.332;18.034;2022-10-16T00:25:56;100233.88;;;13.74;100.00
18821;BME280;9539;59.332;18.034;2022-10-16T00:28:24;100229.25;;;13.76;100.00
18821;BME280;9539;59.332;18.034;2022-10-16T00:30:51;100223.00;;;13.66;100.00
18821;BME280;9539;59.332;18.034;2022-10-16T00:33:19;100227.81;;;13.72;100.00
18821;BME280;9539;59.332;18.034;2022-10-16T00:35:46;100221.03;;;13.68;100.00
18821;BME280;9539;59.332;18.034;2022-10-16T00:38:13;100223.00;;;13.66;100.00
18821;BME280;9539;59.332;18.034;2022-10-16T00:40:40;100213.03;;;13.68;100.00
18821;BME280;9539;59.332;18.034;2022-10-16T00:43:12;100202.06;;;13.50;100.00
18821;BME280;9539;59.332;18.034;2022-10-16T00:45:41;100216.19;;;13.61;100.00
18821;BME280;9539;59.332;18.034;2022-10-16T00:48:11;100208.34;;;13.60;100.00
18821;BME280;9539;59.332;18.034;2022-10-16T00:50:40;100201.31;;;13.59;100.00
18821;BME280;9539;59.332;18.034;2022-10-16T00:53:10;100207.84;;;13.55;100.00
18821;BME280;9539;59.332;18.034;2022-10-16T00:55:37;100204.84;;;13.48;100.00
18821;BME280;9539;59.332;18.034;2022-10-16T00:58:04;100197.06;;;13.56;100.00
18821;BME280;9539;59.332;18.034;2022-10-16T01:00:31;100209.44;;;13.57;100.00
18821;BME280;9539;59.332;18.034;2022-10-16T01:03:01;100203.69;;;13.41;100.00
18821;BME280;9539;59.332;18.034;2022-10-16T01:05:33;100211.38;;;13.55;100.00
18821;BME280;9539;59.332;18.034;2022-10-16T01:08:09;100214.41;;;13.51;100.00
18821;BME280;9539;59.332;18.034;2022-10-16T01:10:40;100196.50;;;13.53;100.00
18821;BME280;9539;59.332;18.034;2022-10-16T01:13:12;100193.00;;;13.30;100.00
18821;BME280;9539;59.332;18.034;2022-10-16T01:15:47;100191.66;;;13.47;100.00
18821;BME280;9539;59.332;18.034;2022-10-16T01:18:23;100205.13;;;13.34;100.00
18821;BME280;9539;59.332;18.034;2022-10-16T01:20:58;100197.66;;;13.28;100.00
18821;BME280;9539;59.332;18.034;2022-10-16T01:23:38;100211.28;;;13.46;100.00
18821;BME280;9539;59.332;18.034;2022-10-16T01:26:29;100193.47;;;13.35;100.00
18821;BME280;9539;59.332;18.034;2022-10-16T01:29:03;100201.47;;;13.35;100.00
18821;BME280;9539;59.332;18.034;2022-10-16T01:31:36;100216.38;;;13.38;100.00
18821;BME280;9539;59.332;18.034;2022-10-16T01:34:08;100210.59;;;13.22;100.00
18821;BME280;9539;59.332;18.034;2022-10-16T01:36:39;100221.47;;;13.41;100.00
18821;BME280;9539;59.332;18.034;2022-10-16T01:39:09;100221.34;;;13.42;100.00
18821;BME280;9539;59.332;18.034;2022-10-16T01:41:40;100215.28;;;13.51;100.00
18821;BME280;9539;59.332;18.034;2022-10-16T01:44:10;100210.31;;;13.47;100.00
18821;BME280;9539;59.332;18.034;2022-10-16T01:46:42;100209.00;;;13.41;100.00
18821;BME280;9539;59.332;18.034;2022-10-16T01:49:10;100220.94;;;13.58;100.00
18821;BME280;9539;59.332;18.034;2022-10-16T01:51:38;100216.34;;;13.49;100.00
18821;BME280;9539;59.332;18.034;2022-10-16T01:54:08;100223.03;;;13.43;100.00
18821;BME280;9539;59.332;18.034;2022-10-16T01:56:36;100227.50;;;13.43;100.00
18821;BME280;9539;59.332;18.034;2022-10-16T01:59:08;100227.50;;;13.43;100.00
18821;BME280;9539;59.332;18.034;2022-10-16T02:01:40;100224.16;;;13.41;100.00
18821;BME280;9539;59.332;18.034;2022-10-16T02:04:13;100215.31;;;13.40;100.00
18821;BME280;9539;59.332;18.034;2022-10-16T02:06:42;100201.00;;;13.41;100.00
18821;BME280;9539;59.332;18.034;2022-10-16T02:09:09;100193.75;;;13.32;100.00
18821;BME280;9539;59.332;18.034;2022-10-16T02:11:36;100199.31;;;13.29;100.00
18821;BME280;9539;59.332;18.034;2022-10-16T02:14:04;100192.66;;;13.35;100.00
18821;BME280;9539;59.332;18.034;2022-10-16T02:16:38;100198.81;;;13.35;100.00
18821;BME280;9539;59.332;18.034;2022-10-16T02:19:06;100204.13;;;13.46;100.00
18821;BME280;9539;59.332;18.034;2022-10-16T02:21:38;100204.72;;;13.50;100.00
18821;BME280;9539;59.332;18.034;2022-10-16T02:24:11;100203.88;;;13.49;100.00
18821;BME280;9539;59.332;18.034;2022-10-16T02:26:45;100200.00;;;13.53;100.00
18821;BME280;9539;59.332;18.034;2022-10-16T02:29:19;100198.91;;;13.56;100.00
18821;BME280;9539;59.332;18.034;2022-10-16T02:31:54;100201.34;;;13.48;100.00
18821;BME280;9539;59.332;18.034;2022-10-16T02:34:23;100206.47;;;13.40;100.00
18821;BME280;9539;59.332;18.034;2022-10-16T02:36:52;100201.97;;;13.40;100.00
18821;BME280;9539;59.332;18.034;2022-10-16T02:39:20;100209.25;;;13.38;100.00
18821;BME280;9539;59.332;18.034;2022-10-16T02:41:47;100213.56;;;13.50;100.00
18821;BME280;9539;59.332;18.034;2022-10-16T02:44:14;100222.53;;;13.60;100.00
18821;BME280;9539;59.332;18.034;2022-10-16T02:46:41;100207.97;;;13.65;100.00
18821;BME280;9539;59.332;18.034;2022-10-16T02:49:09;100203.75;;;13.51;100.00
18821;BME280;9539;59.332;18.034;2022-10-16T02:51:36;100200.47;;;13.58;100.00
18821;BME280;9539;59.332;18.034;2022-10-16T02:54:03;100189.31;;;13.65;100.00
18821;BME280;9539;59.332;18.034;2022-10-16T02:56:30;100180.00;;;13.59;100.00
18821;BME280;9539;59.332;18.034;2022-10-16T02:58:57;100180.00;;;13.59;100.00
18821;BME280;9539;59.332;18.034;2022-10-16T03:01:24;100175.91;;;13.44;100.00
18821;BME280;9539;59.332;18.034;2022-10-16T03:03:51;100167.78;;;13.45;100.00
18821;BME280;9539;59.332;18.034;2022-10-16T03:06:19;100173.84;;;13.47;100.00
18821;BME280;9539;59.332;18.034;2022-10-16T03:08:46;100164.50;;;13.53;100.00
18821;BME280;9539;59.332;18.034;2022-10-16T03:11:13;100164.41;;;13.43;100.00
18821;BME280;9539;59.332;18.034;2022-10-16T03:13:39;100168.41;;;13.38;100.00
18821;BME280;9539;59.332;18.034;2022-10-16T03:16:06;100161.50;;;13.46;100.00
18821;BME280;9539;59.332;18.034;2022-10-16T03:18:33;100159.63;;;13.58;100.00
18821;BME280;9539;59.332;18.034;2022-10-16T03:21:00;100156.63;;;13.51;100.00
18821;BME280;9539;59.332;18.034;2022-10-16T03:23:28;100150.38;;;13.30;100.00
18821;BME280;9539;59.332;18.034;2022-10-16T03:25:55;100150.09;;;13.44;100.00
18821;BME280;9539;59.332;18.034;2022-10-16T03:28:22;100153.41;;;13.37;100.00
18821;BME280;9539;59.332;18.034;2022-10-16T03:30:49;100154.88;;;13.30;100.00
18821;BME280;9539;59.332;18.034;2022-10-16T03:33:16;100161.81;;;13.21;100.00
18821;BME280;9539;59.332;18.034;2022-10-16T03:35:42;100179.00;;;13.28;100.00
18821;BME280;9539;59.332;18.034;2022-10-16T03:38:09;100170.69;;;13.42;100.00
18821;BME280;9539;59.332;18.034;2022-10-16T03:40:37;100162.75;;;13.31;100.00
18821;BME280;9539;59.332;18.034;2022-10-16T03:43:04;100163.72;;;13.30;100.00
18821;BME280;9539;59.332;18.034;2022-10-16T03:45:31;100159.50;;;13.16;100.00
18821;BME280;9539;59.332;18.034;2022-10-16T03:47:58;100160.22;;;13.18;100.00
18821;BME280;9539;59.332;18.034;2022-10-16T03:50:25;100150.41;;;13.08;100.00
18821;BME280;9539;59.332;18.034;2022-10-16T03:52:52;100138.91;;;13.07;100.00
18821;BME280;9539;59.332;18.034;2022-10-16T03:55:18;100143.13;;;13.10;100.00
18821;BME280;9539;59.332;18.034;2022-10-16T03:57:47;100145.09;;;13.19;100.00
18821;BME280;9539;59.332;18.034;2022-10-16T04:00:14;100142.16;;;13.11;100.00
18821;BME280;9539;59.332;18.034;2022-10-16T04:02:40;100145.19;;;13.06;100.00
18821;BME280;9539;59.332;18.034;2022-10-16T04:05:08;100139.75;;;13.08;100.00
18821;BME280;9539;59.332;18.034;2022-10-16T04:07:35;100136.13;;;13.09;100.00
18821;BME280;9539;59.332;18.034;2022-10-16T04:10:02;100137.09;;;13.08;100.00
18821;BME280;9539;59.332;18.034;2022-10-16T04:12:28;100130.66;;;13.10;100.00
18821;BME280;9539;59.332;18.034;2022-10-16T04:14:57;100135.66;;;13.15;100.00
18821;BME280;9539;59.332;18.034;2022-10-16T04:17:23;100147.50;;;13.11;100.00
18821;BME280;9539;59.332;18.034;2022-10-16T04:19:50;100147.59;;;13.09;100.00
18821;BME280;9539;59.332;18.034;2022-10-16T04:22:17;100148.38;;;13.00;100.00
18821;BME280;9539;59.332;18.034;2022-10-16T04:24:44;100145.81;;;12.99;100.00
18821;BME280;9539;59.332;18.034;2022-10-16T04:27:10;100154.66;;;12.99;100.00
18821;BME280;9539;59.332;18.034;2022-10-16T04:29:37;100156.72;;;12.96;100.00
18821;BME280;9539;59.332;18.034;2022-10-16T04:32:07;100158.41;;;12.86;100.00
18821;BME280;9539;59.332;18.034;2022-10-16T04:34:34;100150.41;;;12.97;100.00
18821;BME280;9539;59.332;18.034;2022-10-16T04:37:01;100159.88;;;12.90;100.00
18821;BME280;9539;59.332;18.034;2022-10-16T04:39:28;100141.59;;;12.85;100.00
18821;BME280;9539;59.332;18.034;2022-10-16T04:41:54;100157.44;;;12.87;100.00
18821;BME280;9539;59.332;18.034;2022-10-16T04:44:21;100141.94;;;12.92;100.00
18821;BME280;9539;59.332;18.034;2022-10-16T04:46:50;100147.75;;;12.86;100.00
18821;BME280;9539;59.332;18.034;2022-10-16T04:49:19;100154.53;;;12.78;100.00
18821;BME280;9539;59.332;18.034;2022-10-16T04:51:45;100153.84;;;12.76;100.00
18821;BME280;9539;59.332;18.034;2022-10-16T04:54:12;100139.53;;;12.66;100.00
18821;BME280;9539;59.332;18.034;2022-10-16T04:56:39;100144.25;;;12.74;100.00
18821;BME280;9539;59.332;18.034;2022-10-16T04:59:12;100146.56;;;12.67;100.00
18821;BME280;9539;59.332;18.034;2022-10-16T05:01:39;100151.28;;;12.75;100.00
18821;BME280;9539;59.332;18.034;2022-10-16T05:04:05;100148.97;;;12.70;100.00
18821;BME280;9539;59.332;18.034;2022-10-16T05:06:34;100153.34;;;12.60;100.00
18821;BME280;9539;59.332;18.034;2022-10-16T05:09:01;100153.84;;;12.76;100.00
18821;BME280;9539;59.332;18.034;2022-10-16T05:11:27;100159.38;;;12.73;100.00
18821;BME280;9539;59.332;18.034;2022-10-16T05:13:54;100165.78;;;12.71;100.00
18821;BME280;9539;59.332;18.034;2022-10-16T05:16:21;100165.69;;;12.72;100.00
18821;BME280;9539;59.332;18.034;2022-10-16T05:18:48;100151.28;;;12.75;100.00
18821;BME280;9539;59.332;18.034;2022-10-16T05:21:15;100151.03;;;12.67;100.00
18821;BME280;9539;59.332;18.034;2022-10-16T05:23:43;100157.94;;;12.80;100.00
18821;BME280;9539;59.332;18.034;2022-10-16T05:26:10;100147.41;;;12.79;100.00
18821;BME280;9539;59.332;18.034;2022-10-16T05:28:37;100152.00;;;12.77;100.00
18821;BME280;9539;59.332;18.034;2022-10-16T05:31:04;100161.34;;;12.82;100.00
18821;BME280;9539;59.332;18.034;2022-10-16T05:33:32;100155.75;;;12.86;100.00
18821;BME280;9539;59.332;18.034;2022-10-16T05:36:01;100146.69;;;12.88;100.00
18821;BME280;9539;59.332;18.034;2022-10-16T05:38:28;100154.78;;;12.87;100.00
18821;BME280;9539;59.332;18.034;2022-10-16T05:40:56;100162.31;;;12.81;100.00
18821;BME280;9539;59.332;18.034;2022-10-16T05:43:23;100158.16;;;12.77;100.00
18821;BME280;9539;59.332;18.034;2022-10-16T05:45:54;100150.91;;;12.79;100.00
18821;BME280;9539;59.332;18.034;2022-10-16T05:48:21;100151.78;;;12.69;100.00
18821;BME280;9539;59.332;18.034;2022-10-16T05:50:48;100161.94;;;12.75;100.00
18821;BME280;9539;59.332;18.034;2022-10-16T05:53:22;100146.81;;;12.75;100.00
18821;BME280;9539;59.332;18.034;2022-10-16T05:55:54;100154.66;;;12.77;100.00
18821;BME280;9539;59.332;18.034;2022-10-16T05:58:23;100155.38;;;12.79;100.00
18821;BME280;9539;59.332;18.034;2022-10-16T06:00:54;100158.88;;;12.91;100.00
18821;BME280;9539;59.332;18.034;2022-10-16T06:03:21;100168.69;;;13.01;100.00
18821;BME280;9539;59.332;18.034;2022-10-16T06:05:48;100174.03;;;13.01;100.00
18821;BME280;9539;59.332;18.034;2022-10-16T06:08:15;100178.72;;;12.98;100.00
18821;BME280;9539;59.332;18.034;2022-10-16T06:10:44;100170.75;;;13.09;100.00
18821;BME280;9539;59.332;18.034;2022-10-16T06:13:11;100173.41;;;12.98;100.00
18821;BME280;9539;59.332;18.034;2022-10-16T06:15:39;100178.28;;;13.15;100.00
18821;BME280;9539;59.332;18.034;2022-10-16T06:18:08;100185.06;;;13.19;100.00
18821;BME280;9539;59.332;18.034;2022-10-16T06:20:35;100169.06;;;13.08;100.00
18821;BME280;9539;59.332;18.034;2022-10-16T06:23:02;100187.13;;;13.15;100.00
18821;BME280;9539;59.332;18.034;2022-10-16T06:25:29;100182.63;;;13.16;100.00
18821;BME280;9539;59.332;18.034;2022-10-16T06:27:56;100170.88;;;13.18;100.00
18821;BME280;9539;59.332;18.034;2022-10-16T06:30:23;100189.75;;;13.38;100.00
18821;BME280;9539;59.332;18.034;2022-10-16T06:32:51;100182.13;;;13.33;100.00
18821;BME280;9539;59.332;18.034;2022-10-16T06:35:18;100193.00;;;13.41;100.00
18821;BME280;9539;59.332;18.034;2022-10-16T06:37:45;100200.00;;;13.42;100.00
18821;BME280;9539;59.332;18.034;2022-10-16T06:40:12;100205.69;;;13.49;100.00
18821;BME280;9539;59.332;18.034;2022-10-16T06:42:40;100199.41;;;13.50;100.00
18821;BME280;9539;59.332;18.034;2022-10-16T06:45:07;100206.06;;;13.44;100.00
18821;BME280;9539;59.332;18.034;2022-10-16T06:47:34;100202.69;;;13.42;100.00
18821;BME280;9539;59.332;18.034;2022-10-16T06:50:03;100204.22;;;13.56;100.00
18821;BME280;9539;59.332;18.034;2022-10-16T06:52:31;100207.00;;;13.66;100.00
18821;BME280;9539;59.332;18.034;2022-10-16T06:54:58;100207.47;;;13.71;100.00
18821;BME280;9539;59.332;18.034;2022-10-16T06:57:25;100211.31;;;13.78;100.00
18821;BME280;9539;59.332;18.034;2022-10-16T06:59:52;100207.69;;;13.79;100.00
18821;BME280;9539;59.332;18.034;2022-10-16T07:02:19;100216.44;;;13.70;100.00
18821;BME280;9539;59.332;18.034;2022-10-16T07:04:46;100212.66;;;13.72;100.00
18821;BME280;9539;59.332;18.034;2022-10-16T07:07:14;100212.41;;;13.75;100.00
18821;BME280;9539;59.332;18.034;2022-10-16T07:09:41;100218.94;;;13.82;100.00
18821;BME280;9539;59.332;18.034;2022-10-16T07:12:07;100215.28;;;13.83;100.00
18821;BME280;9539;59.332;18.034;2022-10-16T07:14:34;100218.41;;;13.88;100.00
18821;BME280;9539;59.332;18.034;2022-10-16T07:17:02;100221.25;;;13.87;100.00
18821;BME280;9539;59.332;18.034;2022-10-16T07:19:29;100210.97;;;14.03;100.00
18821;BME280;9539;59.332;18.034;2022-10-16T07:21:55;100216.94;;;13.95;100.00
18821;BME280;9539;59.332;18.034;2022-10-16T07:24:24;100223.22;;;14.06;100.00
18821;BME280;9539;59.332;18.034;2022-10-16T07:26:51;100213.41;;;14.06;100.00
18821;BME280;9539;59.332;18.034;2022-10-16T07:29:22;100219.38;;;13.98;100.00
18821;BME280;9539;59.332;18.034;2022-10-16T07:31:49;100223.72;;;13.99;100.00
18821;BME280;9539;59.332;18.034;2022-10-16T07:34:18;100222.56;;;14.13;100.00
18821;BME280;9539;59.332;18.034;2022-10-16T07:36:47;100225.50;;;14.10;100.00
18821;BME280;9539;59.332;18.034;2022-10-16T07:39:14;100224.19;;;14.05;100.00
18821;BME280;9539;59.332;18.034;2022-10-16T07:41:42;100227.72;;;13.94;100.00
18821;BME280;9539;59.332;18.034;2022-10-16T07:44:09;100225.44;;;14.21;100.00
18821;BME280;9539;59.332;18.034;2022-10-16T07:46:36;100221.47;;;14.16;100.00
18821;BME280;9539;59.332;18.034;2022-10-16T07:49:03;100222.75;;;14.21;100.00
18821;BME280;9539;59.332;18.034;2022-10-16T07:51:30;100225.50;;;14.10;100.00
18821;BME280;9539;59.332;18.034;2022-10-16T07:53:57;100227.97;;;14.23;100.00
18821;BME280;9539;59.332;18.034;2022-10-16T07:56:24;100220.16;;;14.10;100.00
18821;BME280;9539;59.332;18.034;2022-10-16T07:58:52;100217.59;;;14.09;100.00
18821;BME280;9539;59.332;18.034;2022-10-16T08:01:19;100222.81;;;14.10;100.00
18821;BME280;9539;59.332;18.034;2022-10-16T08:03:47;100225.31;;;14.23;100.00
18821;BME280;9539;59.332;18.034;2022-10-16T08:06:14;100221.13;;;14.09;100.00
18821;BME280;9539;59.332;18.034;2022-10-16T08:08:41;100206.38;;;14.05;100.00
18821;BME280;9539;59.332;18.034;2022-10-16T08:11:08;100220.22;;;14.20;100.00
18821;BME280;9539;59.332;18.034;2022-10-16T08:13:35;100215.50;;;14.23;100.00
18821;BME280;9539;59.332;18.034;2022-10-16T08:16:04;100224.22;;;14.25;100.00
18821;BME280;9539;59.332;18.034;2022-10-16T08:18:33;100226.63;;;14.28;100.00
18821;BME280;9539;59.332;18.034;2022-10-16T08:21:01;100230.19;;;14.18;100.00
18821;BME280;9539;59.332;18.034;2022-10-16T08:23:28;100235.00;;;14.24;100.00
18821;BME280;9539;59.332;18.034;2022-10-16T08:25:56;100235.66;;;14.16;100.00
18821;BME280;9539;59.332;18.034;2022-10-16T08:28:28;100238.72;;;14.12;100.00
18821;BME280;9539;59.332;18.034;2022-10-16T08:30:54;100232.06;;;14.06;100.00
18821;BME280;9539;59.332;18.034;2022-10-16T08:33:23;100239.75;;;14.20;100.00
18821;BME280;9539;59.332;18.034;2022-10-16T08:35:51;100241.31;;;14.23;100.00
18821;BME280;9539;59.332;18.034;2022-10-16T08:38:19;100235.53;;;14.18;100.00
18821;BME280;9539;59.332;18.034;2022-10-16T08:40:46;100240.06;;;14.27;100.00
18821;BME280;9539;59.332;18.034;2022-10-16T08:43:34;100239.94;;;14.28;100.00
18821;BME280;9539;59.332;18.034;2022-10-16T08:46:15;100230.47;;;14.35;100.00
18821;BME280;9539;59.332;18.034;2022-10-16T08:48:49;100229.13;;;14.41;100.00
18821;BME280;9539;59.332;18.034;2022-10-16T08:51:20;100237.66;;;14.56;100.00
18821;BME280;9539;59.332;18.034;2022-10-16T08:53:52;100233.97;;;14.36;100.00
18821;BME280;9539;59.332;18.034;2022-10-16T08:56:21;100241.69;;;14.50;100.00
18821;BME280;9539;59.332;18.034;2022-10-16T08:58:48;100244.28;;;14.61;100.00
18821;BME280;9539;59.332;18.034;2022-10-16T09:01:16;100240.56;;;14.53;100.00
18821;BME280;9539;59.332;18.034;2022-10-16T09:04:03;100244.03;;;14.44;100.00
18821;BME280;9539;59.332;18.034;2022-10-16T09:06:44;100242.91;;;14.46;100.00
18821;BME280;9539;59.332;18.034;2022-10-16T09:09:36;100245.59;;;14.46;100.00
18821;BME280;9539;59.332;18.034;2022-10-16T09:12:11;100243.03;;;14.24;100.00
18821;BME280;9539;59.332;18.034;2022-10-16T09:14:57;100237.91;;;14.32;100.00
18821;BME280;9539;59.332;18.034;2022-10-16T09:17:34;100238.25;;;14.27;100.00
18821;BME280;9539;59.332;18.034;2022-10-16T09:20:19;100241.41;;;14.53;100.00
18821;BME280;9539;59.332;18.034;2022-10-16T09:22:53;100238.50;;;14.56;100.00
18821;BME280;9539;59.332;18.034;2022-10-16T09:25:23;100240.19;;;14.57;100.00
18821;BME280;9539;59.332;18.034;2022-10-16T09:27:52;100234.63;;;14.91;100.00
18821;BME280;9539;59.332;18.034;2022-10-16T09:30:21;100237.13;;;14.83;100.00
18821;BME280;9539;59.332;18.034;2022-10-16T09:32:51;100230.84;;;14.93;100.00
18821;BME280;9539;59.332;18.034;2022-10-16T09:35:22;100237.69;;;14.86;100.00
18821;BME280;9539;59.332;18.034;2022-10-16T09:37:52;100236.25;;;14.82;100.00
18821;BME280;9539;59.332;18.034;2022-10-16T09:40:26;100235.84;;;14.87;100.00
18821;BME280;9539;59.332;18.034;2022-10-16T09:43:01;100240.72;;;15.02;100.00
18821;BME280;9539;59.332;18.034;2022-10-16T09:45:28;100235.47;;;15.22;100.00
18821;BME280;9539;59.332;18.034;2022-10-16T09:47:55;100225.91;;;15.78;100.00
18821;BME280;9539;59.332;18.034;2022-10-16T09:50:25;100237.59;;;15.77;100.00
18821;BME280;9539;59.332;18.034;2022-10-16T09:53:04;100228.44;;;15.89;100.00
18821;BME280;9539;59.332;18.034;2022-10-16T09:55:31;100239.03;;;16.01;100.00
18821;BME280;9539;59.332;18.034;2022-10-16T09:57:58;100226.63;;;16.09;100.00
18821;BME280;9539;59.332;18.034;2022-10-16T10:00:25;100226.63;;;16.09;100.00
18821;BME280;9539;59.332;18.034;2022-10-16T10:02:52;100228.31;;;16.10;100.00
18821;BME280;9539;59.332;18.034;2022-10-16T10:05:21;100214.88;;;16.77;100.00
18821;BME280;9539;59.332;18.034;2022-10-16T10:07:56;100213.06;;;17.05;100.00
18821;BME280;9539;59.332;18.034;2022-10-16T10:10:25;100221.81;;;17.35;100.00
18821;BME280;9539;59.332;18.034;2022-10-16T10:12:52;100222.22;;;17.40;100.00
18821;BME280;9539;59.332;18.034;2022-10-16T10:15:19;100219.03;;;17.54;100.00
18821;BME280;9539;59.332;18.034;2022-10-16T10:17:49;100204.00;;;16.79;100.00
18821;BME280;9539;59.332;18.034;2022-10-16T10:20:23;100213.59;;;16.82;100.00
18821;BME280;9539;59.332;18.034;2022-10-16T10:22:50;100221.34;;;16.85;100.00
18821;BME280;9539;59.332;18.034;2022-10-16T10:25:51;100219.28;;;16.50;100.00
18821;BME280;9539;59.332;18.034;2022-10-16T10:28:34;100217.03;;;16.64;100.00
18821;BME280;9539;59.332;18.034;2022-10-16T10:31:06;100221.81;;;16.51;100.00
18821;BME280;9539;59.332;18.034;2022-10-16T10:33:42;100220.13;;;16.21;100.00
18821;BME280;9539;59.332;18.034;2022-10-16T10:36:22;100233.41;;;16.04;100.00
18821;BME280;9539;59.332;18.034;2022-10-16T10:38:56;100223.94;;;15.90;100.00
18821;BME280;9539;59.332;18.034;2022-10-16T10:41:54;100218.31;;;16.03;100.00
18821;BME280;9539;59.332;18.034;2022-10-16T10:44:36;100221.28;;;16.19;100.00
18821;BME280;9539;59.332;18.034;2022-10-16T10:47:12;100218.47;;;16.20;100.00
18821;BME280;9539;59.332;18.034;2022-10-16T10:49:51;100228.16;;;16.50;100.00
18821;BME280;9539;59.332;18.034;2022-10-16T10:52:41;100223.09;;;16.28;100.00
18821;BME280;9539;59.332;18.034;2022-10-16T10:55:16;100225.06;;;16.45;100.00
18821;BME280;9539;59.332;18.034;2022-10-16T10:58:04;100211.03;;;16.90;100.00
18821;BME280;9539;59.332;18.034;2022-10-16T11:00:42;100217.31;;;16.61;100.00
18821;BME280;9539;59.332;18.034;2022-10-16T11:03:26;100210.94;;;16.72;100.00
18821;BME280;9539;59.332;18.034;2022-10-16T11:06:00;100209.50;;;16.77;100.00
18821;BME280;9539;59.332;18.034;2022-10-16T11:08:34;100200.38;;;16.70;100.00
18821;BME280;9539;59.332;18.034;2022-10-16T11:11:04;100203.06;;;16.42;100.00
18821;BME280;9539;59.332;18.034;2022-10-16T11:13:37;100189.00;;;16.30;100.00
18821;BME280;9539;59.332;18.034;2022-10-16T11:16:13;100204.63;;;16.34;100.00
18821;BME280;9539;59.332;18.034;2022-10-16T11:18:47;100206.91;;;16.10;100.00
18821;BME280;9539;59.332;18.034;2022-10-16T11:21:18;100196.91;;;16.12;100.00
18821;BME280;9539;59.332;18.034;2022-10-16T11:23:51;100187.03;;;16.22;100.00
18821;BME280;9539;59.332;18.034;2022-10-16T11:26:21;100178.25;;;16.49;100.00
18821;BME280;9539;59.332;18.034;2022-10-16T11:28:53;100179.41;;;16.37;100.00
18821;BME280;9539;59.332;18.034;2022-10-16T11:31:26;100195.72;;;16.53;100.00
18821;BME280;9539;59.332;18.034;2022-10-16T11:34:01;100193.25;;;16.23;100.00
18821;BME280;9539;59.332;18.034;2022-10-16T11:36:34;100189.28;;;16.36;100.00
18821;BME280;9539;59.332;18.034;2022-10-16T11:39:11;100184.66;;;16.19;100.00
18821;BME280;9539;59.332;18.034;2022-10-16T11:41:44;100176.88;;;16.45;100.00
18821;BME280;9539;59.332;18.034;2022-10-16T11:44:34;100172.16;;;16.01;100.00
18821;BME280;9539;59.332;18.034;2022-10-16T11:47:19;100170.31;;;15.72;100.00
18821;BME280;9539;59.332;18.034;2022-10-16T11:49:50;100170.16;;;15.64;100.00
18821;BME280;9539;59.332;18.034;2022-10-16T11:52:24;100170.44;;;15.80;100.00
18821;BME280;9539;59.332;18.034;2022-10-16T11:54:54;100167.47;;;15.64;100.00
18821;BME280;9539;59.332;18.034;2022-10-16T11:57:24;100163.41;;;15.60;100.00
18821;BME280;9539;59.332;18.034;2022-10-16T11:59:57;100154.97;;;15.74;100.00
18821;BME280;9539;59.332;18.034;2022-10-16T12:02:48;100155.91;;;16.02;100.00
18821;BME280;9539;59.332;18.034;2022-10-16T12:05:23;100144.78;;;16.16;100.00
18821;BME280;9539;59.332;18.034;2022-10-16T12:08:01;100143.66;;;16.09;100.00
18821;BME280;9539;59.332;18.034;2022-10-16T12:10:29;100142.69;;;15.91;100.00
18821;BME280;9539;59.332;18.034;2022-10-16T12:13:03;100129.31;;;15.91;100.00
18821;BME280;9539;59.332;18.034;2022-10-16T12:15:32;100143.41;;;15.83;100.00
18821;BME280;9539;59.332;18.034;2022-10-16T12:18:00;100137.66;;;15.88;100.00
18821;BME280;9539;59.332;18.034;2022-10-16T12:20:28;100123.69;;;15.84;100.00
18821;BME280;9539;59.332;18.034;2022-10-16T12:22:59;100124.69;;;15.74;100.00
18821;BME280;9539;59.332;18.034;2022-10-16T12:25:29;100119.34;;;15.64;100.00
18821;BME280;9539;59.332;18.034;2022-10-16T12:27:59;100108.63;;;15.64;100.00
18821;BME280;9539;59.332;18.034;2022-10-16T12:30:28;100104.41;;;15.71;100.00
18821;BME280;9539;59.332;18.034;2022-10-16T12:32:58;100103.25;;;15.35;100.00
18821;BME280;9539;59.332;18.034;2022-10-16T12:35:29;100112.09;;;15.26;100.00
18821;BME280;9539;59.332;18.034;2022-10-16T12:38:06;100114.84;;;14.96;100.00
18821;BME280;9539;59.332;18.034;2022-10-16T12:40:36;100111.81;;;15.10;100.00
18821;BME280;9539;59.332;18.034;2022-10-16T12:43:25;100117.81;;;15.02;100.00
18821;BME280;9539;59.332;18.034;2022-10-16T12:46:04;100092.63;;;15.05;100.00
18821;BME280;9539;59.332;18.034;2022-10-16T12:48:33;100109.81;;;15.02;100.00
18821;BME280;9539;59.332;18.034;2022-10-16T12:51:10;100092.22;;;14.90;100.00
18821;BME280;9539;59.332;18.034;2022-10-16T12:53:37;100090.50;;;14.89;100.00
18821;BME280;9539;59.332;18.034;2022-10-16T12:56:10;100088.13;;;14.96;100.00